USCGC Tern — NEOT — position and weather

sailwx.info

Track history (hours):
 
Tides and Currents Weather Stations Pressure Air Temp Water Temp Dewpoint Dewpoint Depression Visibility Wind Speed Wind Dir Waves Ship Positions

USCGC Tern

Last reported at 2014-Oct-22 21:31 UTC. Time now 2014-Oct-22 21:44 UTC.
Position N 37°49' W 122°22'.

Length 26 m; draft 12 m.

Type: Military. MMSI: 366999711.

Date/timePositionNaut miles runAvg speedWind from/ knotsBaromVisibWave heightAir tempDewpointWater temp
2014-Oct-22 21:31N 37°49' W 122°22'0 0.0
2014-Oct-22 20:31N 37°49' W 122°22'0 0.0
2014-Oct-22 19:31N 37°49' W 122°22'0 0.0
2014-Oct-22 18:31N 37°49' W 122°22'0 0.0
2014-Oct-22 17:31N 37°49' W 122°22'0 0.0
2014-Oct-22 16:31N 37°49' W 122°22'0 0.0
2014-Oct-22 15:32N 37°49' W 122°22'0 0.0
2014-Oct-22 14:31N 37°49' W 122°22'0 0.0
2014-Oct-22 13:31N 37°49' W 122°22'0 0.0
2014-Oct-22 12:31N 37°49' W 122°22'0 0.0
2014-Oct-22 11:31N 37°49' W 122°22'0 0.0
2014-Oct-22 10:31N 37°49' W 122°22'0 0.0
2014-Oct-22 09:31N 37°49' W 122°22'0 0.0
2014-Oct-22 08:31N 37°49' W 122°22'0 0.0
2014-Oct-22 07:32N 37°49' W 122°22'0 0.0
2014-Oct-22 06:31N 37°49' W 122°22'0 0.0
2014-Oct-22 05:31N 37°49' W 122°22'0 0.0
2014-Oct-22 04:31N 37°49' W 122°22'0 0.0
2014-Oct-22 03:31N 37°49' W 122°22'0 0.0
2014-Oct-22 02:31N 37°49' W 122°22'0 0.0
2014-Oct-22 01:31N 37°49' W 122°22'0 0.0
2014-Oct-22 00:31N 37°49' W 122°22'0 0.0
2014-Oct-21 23:31N 37°49' W 122°22'0 0.0
2014-Oct-21 22:31N 37°49' W 122°22'0 0.0
2014-Oct-21 21:31N 37°49' W 122°22'0 0.0
2014-Oct-21 20:29N 37°49' W 122°22'0 0.0
2014-Oct-21 19:28N 37°49' W 122°22'0 0.0
2014-Oct-21 18:31N 37°49' W 122°22'0 0.0
2014-Oct-21 17:28N 37°49' W 122°22'0 0.0
2014-Oct-21 16:31N 37°49' W 122°22'0 0.0
2014-Oct-21 15:31N 37°49' W 122°22'0 0.0
2014-Oct-21 14:31N 37°49' W 122°22'0 0.0
2014-Oct-21 13:31N 37°49' W 122°22'0 0.0
2014-Oct-21 12:28N 37°49' W 122°22'0 0.0
2014-Oct-21 11:04N 37°49' W 122°22'0 0.0
2014-Oct-21 10:31N 37°49' W 122°22'0 0.0
2014-Oct-21 09:22N 37°49' W 122°22'0 0.0
2014-Oct-21 08:25N 37°49' W 122°22'0 0.0
2014-Oct-21 07:28N 37°49' W 122°22'0 0.0
2014-Oct-21 06:31N 37°49' W 122°22'0 0.0
2014-Oct-21 05:31N 37°49' W 122°22'0 0.0
2014-Oct-21 04:32N 37°49' W 122°22'0 0.0
2014-Oct-21 03:31N 37°49' W 122°22'0 0.0
2014-Oct-21 02:31N 37°49' W 122°22'0 0.0
2014-Oct-21 01:28N 37°49' W 122°22'0 0.0
2014-Oct-21 00:31N 37°49' W 122°22'0 0.0
2014-Oct-20 23:31N 37°49' W 122°22'0 0.0
2014-Oct-20 22:31N 37°49' W 122°22'0 0.0
2014-Oct-20 21:31N 37°49' W 122°22'0 0.0
2014-Oct-20 20:31N 37°49' W 122°22'0 0.0
2014-Oct-20 19:28N 37°49' W 122°22'0 0.0
2014-Oct-20 18:25N 37°49' W 122°22'0 0.0
2014-Oct-20 17:16N 37°49' W 122°22'0 0.0
2014-Oct-20 16:31N 37°49' W 122°22'0 0.0
2014-Oct-20 15:33N 37°49' W 122°22'3 2.8
2014-Oct-20 14:32N 37°49' W 122°25'  
2014-Oct-17 23:28N 37°40' W 122°38'1010.6
2014-Oct-17 22:33N 37°48' W 122°31'7 6.9
2014-Oct-17 21:31N 37°49' W 122°22'0 0.0
2014-Oct-17 20:32N 37°49' W 122°22'0 0.0
2014-Oct-17 19:31N 37°49' W 122°22'0 0.0
2014-Oct-17 18:31N 37°49' W 122°22'0 0.0
2014-Oct-17 17:28N 37°49' W 122°22'0 0.0
2014-Oct-17 16:31N 37°49' W 122°22'0 0.0
2014-Oct-17 15:31N 37°49' W 122°22'5 5.4
2014-Oct-17 14:33N 37°51' W 122°28'1 0.6
2014-Oct-17 13:32N 37°51' W 122°28'0 0.0
2014-Oct-17 12:32N 37°51' W 122°28'0 0.0
2014-Oct-17 11:30N 37°51' W 122°28'0 0.0
2014-Oct-17 10:33N 37°51' W 122°28'0 0.0
2014-Oct-17 09:29N 37°51' W 122°28'0 0.0
2014-Oct-17 08:33N 37°51' W 122°28'0 0.0
2014-Oct-17 07:33N 37°51' W 122°28'0 0.0
2014-Oct-17 06:33N 37°51' W 122°28'0 0.0
2014-Oct-17 05:33N 37°51' W 122°28'0 0.0
2014-Oct-17 04:32N 37°51' W 122°28'6 6.3
2014-Oct-17 03:33N 37°47' W 122°23'0 0.2
2014-Oct-17 02:33N 37°47' W 122°23'0 0.2
2014-Oct-17 01:33N 37°47' W 122°23'3 3.3
2014-Oct-17 00:33N 37°49' W 122°25'10 9.6
2014-Oct-16 23:33N 37°47' W 122°38'1212.0
2014-Oct-16 22:33N 37°52' W 122°52'6 6.2
2014-Oct-16 21:33N 37°54' W 122°59'0 0.2
2014-Oct-16 20:33N 37°54' W 122°59'6 5.7
2014-Oct-16 19:28N 38°00' W 122°58'0 0.0
2014-Oct-16 18:31N 38°00' W 122°58'7 7.4
2014-Oct-16 17:33N 37°55' W 122°52'1212.2
2014-Oct-16 16:33N 37°48' W 122°39'1110.8
2014-Oct-16 15:34N 37°49' W 122°25'3 2.6
2014-Oct-16 14:27N 37°49' W 122°22'0 0.0
2014-Oct-16 13:33N 37°49' W 122°22'0 0.0
2014-Oct-16 12:32N 37°49' W 122°22'0 0.0
2014-Oct-16 11:33N 37°49' W 122°22'0 0.0
2014-Oct-16 10:33N 37°49' W 122°22'0 0.0
2014-Oct-16 09:30N 37°49' W 122°22'0 0.0
2014-Oct-16 08:33N 37°49' W 122°22'0 0.0
2014-Oct-16 07:30N 37°49' W 122°22'0 0.0
2014-Oct-16 06:30N 37°49' W 122°22'0 0.0
2014-Oct-16 05:33N 37°49' W 122°22'0 0.0
2014-Oct-16 04:32N 37°49' W 122°22'0 0.0
2014-Oct-16 03:30N 37°49' W 122°22'0 0.0
2014-Oct-16 02:33N 37°49' W 122°22'0 0.0
2014-Oct-16 01:33N 37°49' W 122°22'0 0.0
2014-Oct-16 00:33N 37°49' W 122°22'0 0.4
2014-Oct-15 23:34N 37°48' W 122°22'3 2.6
2014-Oct-15 22:33N 37°49' W 122°25'7 7.5
2014-Oct-15 21:33N 37°45' W 122°34'3 0.5
2014-Oct-15 15:13N 37°47' W 122°36'7 9.8
2014-Oct-15 14:33N 37°49' W 122°28'2 1.7
2014-Oct-15 13:33N 37°51' W 122°28'0 0.0
2014-Oct-15 12:33N 37°51' W 122°28'0 0.0
2014-Oct-15 11:33N 37°51' W 122°28'0 0.0
2014-Oct-15 10:33N 37°51' W 122°28'0 0.0
2014-Oct-15 09:33N 37°51' W 122°28'0 0.0
2014-Oct-15 08:33N 37°51' W 122°28'0 0.0
2014-Oct-15 07:33N 37°51' W 122°28'0 0.0
2014-Oct-15 06:33N 37°51' W 122°28'0 0.0
2014-Oct-15 05:33N 37°51' W 122°28'0 0.0
2014-Oct-15 04:33N 37°51' W 122°28'0 0.0
2014-Oct-15 03:33N 37°51' W 122°28'0 0.0
2014-Oct-15 02:33N 37°51' W 122°28'0 0.0
2014-Oct-15 01:33N 37°51' W 122°28'0 0.0
2014-Oct-15 00:27N 37°51' W 122°28'0 0.0
2014-Oct-14 23:30N 37°51' W 122°28'0 0.0
2014-Oct-14 22:21N 37°51' W 122°28'3 4.3
2014-Oct-14 21:33N 37°49' W 122°25'1 1.2
2014-Oct-14 20:33N 37°49' W 122°26'1212.1
2014-Oct-14 19:32N 37°48' W 122°42'8 7.9
2014-Oct-14 18:33N 37°54' W 122°48'6 6.1
2014-Oct-14 17:33N 37°49' W 122°43'5 4.8
2014-Oct-14 16:33N 37°45' W 122°41'5 5.0
2014-Oct-14 15:33N 37°47' W 122°35'7 6.4
2014-Oct-14 14:32N 37°51' W 122°28'0 0.0
2014-Oct-14 13:32N 37°51' W 122°28'0 0.0
2014-Oct-14 12:30N 37°51' W 122°28'0 0.0
2014-Oct-14 11:32N 37°51' W 122°28'0 0.0
2014-Oct-14 10:33N 37°51' W 122°28'0 0.0
2014-Oct-14 09:33N 37°51' W 122°28'0 0.0
2014-Oct-14 08:32N 37°51' W 122°28'0 0.0
2014-Oct-14 07:32N 37°51' W 122°28'0 0.0
2014-Oct-14 06:29N 37°51' W 122°28'0 0.0
2014-Oct-14 05:32N 37°51' W 122°28'0 0.0
2014-Oct-14 04:32N 37°51' W 122°28'0 0.0
2014-Oct-14 03:29N 37°51' W 122°28'0 0.0
2014-Oct-14 02:32N 37°51' W 122°28'0 0.0
2014-Oct-14 01:33N 37°51' W 122°28'0 0.0
2014-Oct-14 00:27N 37°51' W 122°28'0 0.0
2014-Oct-13 23:33N 37°51' W 122°28'0 0.0
2014-Oct-13 22:29N 37°51' W 122°28'0 0.0
2014-Oct-13 21:32N 37°51' W 122°28'5 4.6
2014-Oct-13 20:33N 37°48' W 122°33'0 0.1
2014-Oct-13 19:08N 37°48' W 122°33'6 9.7
2014-Oct-13 18:33N 37°49' W 122°25'3 3.0
2014-Oct-13 17:33N 37°49' W 122°22'0 0.0
2014-Oct-13 16:32N 37°49' W 122°22'0 0.0
2014-Oct-13 15:32N 37°49' W 122°22'0 0.0
2014-Oct-13 14:27N 37°49' W 122°22'0 0.0
2014-Oct-13 13:27N 37°49' W 122°22'0 0.0
2014-Oct-13 12:33N 37°49' W 122°22'0 0.0
2014-Oct-13 11:33N 37°49' W 122°22'0 0.0
2014-Oct-13 10:33N 37°49' W 122°22'0 0.0
2014-Oct-13 09:33N 37°49' W 122°22'0 0.0
2014-Oct-13 08:33N 37°49' W 122°22'0 0.0
2014-Oct-13 07:33N 37°49' W 122°22'0 0.0
2014-Oct-13 06:33N 37°49' W 122°22'0 0.0
2014-Oct-13 05:33N 37°49' W 122°22'0 0.0
2014-Oct-13 04:32N 37°49' W 122°22'0 0.0
2014-Oct-13 03:33N 37°49' W 122°22'0 0.0
2014-Oct-13 02:33N 37°49' W 122°22'0 0.0
2014-Oct-13 01:33N 37°49' W 122°22'0 0.0
2014-Oct-13 00:33N 37°49' W 122°22'0 0.0
2014-Oct-12 23:33N 37°49' W 122°22'3 3.2
2014-Oct-12 22:32N 37°49' W 122°26'  
Track history (hours):
 
Tides and Currents Weather Stations Pressure Air Temp Water Temp Dewpoint Dewpoint Depression Visibility Wind Speed Wind Dir Waves Ship Positions

USCGC Tern

Last reported at 2014-Oct-22 21:31 UTC. Time now 2014-Oct-22 21:44 UTC.
Position N 37°49' W 122°22'.

Length 26 m; draft 12 m.

Type: Military. MMSI: 366999711.

Date/timePositionNaut miles runAvg speedWind from/ knotsBaromVisibWave heightAir tempDewpointWater temp
2014-Oct-22 21:31N 37°49' W 122°22'0 0.0
2014-Oct-22 20:31N 37°49' W 122°22'0 0.0
2014-Oct-22 19:31N 37°49' W 122°22'0 0.0
2014-Oct-22 18:31N 37°49' W 122°22'0 0.0
2014-Oct-22 17:31N 37°49' W 122°22'0 0.0
2014-Oct-22 16:31N 37°49' W 122°22'0 0.0
2014-Oct-22 15:32N 37°49' W 122°22'0 0.0
2014-Oct-22 14:31N 37°49' W 122°22'0 0.0
2014-Oct-22 13:31N 37°49' W 122°22'0 0.0
2014-Oct-22 12:31N 37°49' W 122°22'0 0.0
2014-Oct-22 11:31N 37°49' W 122°22'0 0.0
2014-Oct-22 10:31N 37°49' W 122°22'0 0.0
2014-Oct-22 09:31N 37°49' W 122°22'0 0.0
2014-Oct-22 08:31N 37°49' W 122°22'0 0.0
2014-Oct-22 07:32N 37°49' W 122°22'0 0.0
2014-Oct-22 06:31N 37°49' W 122°22'0 0.0
2014-Oct-22 05:31N 37°49' W 122°22'0 0.0
2014-Oct-22 04:31N 37°49' W 122°22'0 0.0
2014-Oct-22 03:31N 37°49' W 122°22'0 0.0
2014-Oct-22 02:31N 37°49' W 122°22'0 0.0
2014-Oct-22 01:31N 37°49' W 122°22'0 0.0
2014-Oct-22 00:31N 37°49' W 122°22'0 0.0
2014-Oct-21 23:31N 37°49' W 122°22'0 0.0
2014-Oct-21 22:31N 37°49' W 122°22'0 0.0
2014-Oct-21 21:31N 37°49' W 122°22'0 0.0
2014-Oct-21 20:29N 37°49' W 122°22'0 0.0
2014-Oct-21 19:28N 37°49' W 122°22'0 0.0
2014-Oct-21 18:31N 37°49' W 122°22'0 0.0
2014-Oct-21 17:28N 37°49' W 122°22'0 0.0
2014-Oct-21 16:31N 37°49' W 122°22'0 0.0
2014-Oct-21 15:31N 37°49' W 122°22'0 0.0
2014-Oct-21 14:31N 37°49' W 122°22'0 0.0
2014-Oct-21 13:31N 37°49' W 122°22'0 0.0
2014-Oct-21 12:28N 37°49' W 122°22'0 0.0
2014-Oct-21 11:04N 37°49' W 122°22'0 0.0
2014-Oct-21 10:31N 37°49' W 122°22'0 0.0
2014-Oct-21 09:22N 37°49' W 122°22'0 0.0
2014-Oct-21 08:25N 37°49' W 122°22'0 0.0
2014-Oct-21 07:28N 37°49' W 122°22'0 0.0
2014-Oct-21 06:31N 37°49' W 122°22'0 0.0
2014-Oct-21 05:31N 37°49' W 122°22'0 0.0
2014-Oct-21 04:32N 37°49' W 122°22'0 0.0
2014-Oct-21 03:31N 37°49' W 122°22'0 0.0
2014-Oct-21 02:31N 37°49' W 122°22'0 0.0
2014-Oct-21 01:28N 37°49' W 122°22'0 0.0
2014-Oct-21 00:31N 37°49' W 122°22'0 0.0
2014-Oct-20 23:31N 37°49' W 122°22'0 0.0
2014-Oct-20 22:31N 37°49' W 122°22'0 0.0
2014-Oct-20 21:31N 37°49' W 122°22'0 0.0
2014-Oct-20 20:31N 37°49' W 122°22'0 0.0
2014-Oct-20 19:28N 37°49' W 122°22'0 0.0
2014-Oct-20 18:25N 37°49' W 122°22'0 0.0
2014-Oct-20 17:16N 37°49' W 122°22'0 0.0
2014-Oct-20 16:31N 37°49' W 122°22'0 0.0
2014-Oct-20 15:33N 37°49' W 122°22'3 2.8
2014-Oct-20 14:32N 37°49' W 122°25'  
2014-Oct-17 23:28N 37°40' W 122°38'1010.6
2014-Oct-17 22:33N 37°48' W 122°31'7 6.9
2014-Oct-17 21:31N 37°49' W 122°22'0 0.0
2014-Oct-17 20:32N 37°49' W 122°22'0 0.0
2014-Oct-17 19:31N 37°49' W 122°22'0 0.0
2014-Oct-17 18:31N 37°49' W 122°22'0 0.0
2014-Oct-17 17:28N 37°49' W 122°22'0 0.0
2014-Oct-17 16:31N 37°49' W 122°22'0 0.0
2014-Oct-17 15:31N 37°49' W 122°22'5 5.4
2014-Oct-17 14:33N 37°51' W 122°28'1 0.6
2014-Oct-17 13:32N 37°51' W 122°28'0 0.0
2014-Oct-17 12:32N 37°51' W 122°28'0 0.0
2014-Oct-17 11:30N 37°51' W 122°28'0 0.0
2014-Oct-17 10:33N 37°51' W 122°28'0 0.0
2014-Oct-17 09:29N 37°51' W 122°28'0 0.0
2014-Oct-17 08:33N 37°51' W 122°28'0 0.0
2014-Oct-17 07:33N 37°51' W 122°28'0 0.0
2014-Oct-17 06:33N 37°51' W 122°28'0 0.0
2014-Oct-17 05:33N 37°51' W 122°28'0 0.0
2014-Oct-17 04:32N 37°51' W 122°28'6 6.3
2014-Oct-17 03:33N 37°47' W 122°23'0 0.2
2014-Oct-17 02:33N 37°47' W 122°23'0 0.2
2014-Oct-17 01:33N 37°47' W 122°23'3 3.3
2014-Oct-17 00:33N 37°49' W 122°25'10 9.6
2014-Oct-16 23:33N 37°47' W 122°38'1212.0
2014-Oct-16 22:33N 37°52' W 122°52'6 6.2
2014-Oct-16 21:33N 37°54' W 122°59'0 0.2
2014-Oct-16 20:33N 37°54' W 122°59'6 5.7
2014-Oct-16 19:28N 38°00' W 122°58'0 0.0
2014-Oct-16 18:31N 38°00' W 122°58'7 7.4
2014-Oct-16 17:33N 37°55' W 122°52'1212.2
2014-Oct-16 16:33N 37°48' W 122°39'1110.8
2014-Oct-16 15:34N 37°49' W 122°25'3 2.6
2014-Oct-16 14:27N 37°49' W 122°22'0 0.0
2014-Oct-16 13:33N 37°49' W 122°22'0 0.0
2014-Oct-16 12:32N 37°49' W 122°22'0 0.0
2014-Oct-16 11:33N 37°49' W 122°22'0 0.0
2014-Oct-16 10:33N 37°49' W 122°22'0 0.0
2014-Oct-16 09:30N 37°49' W 122°22'0 0.0
2014-Oct-16 08:33N 37°49' W 122°22'0 0.0
2014-Oct-16 07:30N 37°49' W 122°22'0 0.0
2014-Oct-16 06:30N 37°49' W 122°22'0 0.0
2014-Oct-16 05:33N 37°49' W 122°22'0 0.0
2014-Oct-16 04:32N 37°49' W 122°22'0 0.0
2014-Oct-16 03:30N 37°49' W 122°22'0 0.0
2014-Oct-16 02:33N 37°49' W 122°22'0 0.0
2014-Oct-16 01:33N 37°49' W 122°22'0 0.0
2014-Oct-16 00:33N 37°49' W 122°22'0 0.4
2014-Oct-15 23:34N 37°48' W 122°22'3 2.6
2014-Oct-15 22:33N 37°49' W 122°25'7 7.5
2014-Oct-15 21:33N 37°45' W 122°34'3 0.5
2014-Oct-15 15:13N 37°47' W 122°36'7 9.8
2014-Oct-15 14:33N 37°49' W 122°28'2 1.7
2014-Oct-15 13:33N 37°51' W 122°28'0 0.0
2014-Oct-15 12:33N 37°51' W 122°28'0 0.0
2014-Oct-15 11:33N 37°51' W 122°28'0 0.0
2014-Oct-15 10:33N 37°51' W 122°28'0 0.0
2014-Oct-15 09:33N 37°51' W 122°28'0 0.0
2014-Oct-15 08:33N 37°51' W 122°28'0 0.0
2014-Oct-15 07:33N 37°51' W 122°28'0 0.0
2014-Oct-15 06:33N 37°51' W 122°28'0 0.0
2014-Oct-15 05:33N 37°51' W 122°28'0 0.0
2014-Oct-15 04:33N 37°51' W 122°28'0 0.0
2014-Oct-15 03:33N 37°51' W 122°28'0 0.0
2014-Oct-15 02:33N 37°51' W 122°28'0 0.0
2014-Oct-15 01:33N 37°51' W 122°28'0 0.0
2014-Oct-15 00:27N 37°51' W 122°28'0 0.0
2014-Oct-14 23:30N 37°51' W 122°28'0 0.0
2014-Oct-14 22:21N 37°51' W 122°28'3 4.3
2014-Oct-14 21:33N 37°49' W 122°25'1 1.2
2014-Oct-14 20:33N 37°49' W 122°26'1212.1
2014-Oct-14 19:32N 37°48' W 122°42'8 7.9
2014-Oct-14 18:33N 37°54' W 122°48'6 6.1
2014-Oct-14 17:33N 37°49' W 122°43'5 4.8
2014-Oct-14 16:33N 37°45' W 122°41'5 5.0
2014-Oct-14 15:33N 37°47' W 122°35'7 6.4
2014-Oct-14 14:32N 37°51' W 122°28'0 0.0
2014-Oct-14 13:32N 37°51' W 122°28'0 0.0
2014-Oct-14 12:30N 37°51' W 122°28'0 0.0
2014-Oct-14 11:32N 37°51' W 122°28'0 0.0
2014-Oct-14 10:33N 37°51' W 122°28'0 0.0
2014-Oct-14 09:33N 37°51' W 122°28'0 0.0
2014-Oct-14 08:32N 37°51' W 122°28'0 0.0
2014-Oct-14 07:32N 37°51' W 122°28'0 0.0
2014-Oct-14 06:29N 37°51' W 122°28'0 0.0
2014-Oct-14 05:32N 37°51' W 122°28'0 0.0
2014-Oct-14 04:32N 37°51' W 122°28'0 0.0
2014-Oct-14 03:29N 37°51' W 122°28'0 0.0
2014-Oct-14 02:32N 37°51' W 122°28'0 0.0
2014-Oct-14 01:33N 37°51' W 122°28'0 0.0
2014-Oct-14 00:27N 37°51' W 122°28'0 0.0
2014-Oct-13 23:33N 37°51' W 122°28'0 0.0
2014-Oct-13 22:29N 37°51' W 122°28'0 0.0
2014-Oct-13 21:32N 37°51' W 122°28'5 4.6
2014-Oct-13 20:33N 37°48' W 122°33'0 0.1
2014-Oct-13 19:08N 37°48' W 122°33'6 9.7
2014-Oct-13 18:33N 37°49' W 122°25'3 3.0
2014-Oct-13 17:33N 37°49' W 122°22'0 0.0
2014-Oct-13 16:32N 37°49' W 122°22'0 0.0
2014-Oct-13 15:32N 37°49' W 122°22'0 0.0
2014-Oct-13 14:27N 37°49' W 122°22'0 0.0
2014-Oct-13 13:27N 37°49' W 122°22'0 0.0
2014-Oct-13 12:33N 37°49' W 122°22'0 0.0
2014-Oct-13 11:33N 37°49' W 122°22'0 0.0
2014-Oct-13 10:33N 37°49' W 122°22'0 0.0
2014-Oct-13 09:33N 37°49' W 122°22'0 0.0
2014-Oct-13 08:33N 37°49' W 122°22'0 0.0
2014-Oct-13 07:33N 37°49' W 122°22'0 0.0
2014-Oct-13 06:33N 37°49' W 122°22'0 0.0
2014-Oct-13 05:33N 37°49' W 122°22'0 0.0
2014-Oct-13 04:32N 37°49' W 122°22'0 0.0
2014-Oct-13 03:33N 37°49' W 122°22'0 0.0
2014-Oct-13 02:33N 37°49' W 122°22'0 0.0
2014-Oct-13 01:33N 37°49' W 122°22'0 0.0
2014-Oct-13 00:33N 37°49' W 122°22'0 0.0
2014-Oct-12 23:33N 37°49' W 122°22'3 3.2
2014-Oct-12 22:32N 37°49' W 122°26'  

Dump ship's entire track history